sensor_id;sensor_type;location;lat;lon;timestamp;P1;durP1;ratioP1;P2;durP2;ratioP2
57561;SDS011;43397;51.530;5.974;2022-12-29T00:01:22;4.40;;;2.70;;
57561;SDS011;43397;51.530;5.974;2022-12-29T00:04:24;4.75;;;2.80;;
57561;SDS011;43397;51.530;5.974;2022-12-29T00:07:26;0.30;;;0.30;;
57561;SDS011;43397;51.530;5.974;2022-12-29T00:10:28;0.63;;;0.63;;
57561;SDS011;43397;51.530;5.974;2022-12-29T00:13:29;0.65;;;0.65;;
57561;SDS011;43397;51.530;5.974;2022-12-29T00:16:32;0.30;;;0.30;;
57561;SDS011;43397;51.530;5.974;2022-12-29T00:19:33;0.55;;;0.55;;
57561;SDS011;43397;51.530;5.974;2022-12-29T00:22:35;0.50;;;0.50;;
57561;SDS011;43397;51.530;5.974;2022-12-29T00:25:36;0.40;;;0.40;;
57561;SDS011;43397;51.530;5.974;2022-12-29T00:28:38;0.47;;;0.47;;
57561;SDS011;43397;51.530;5.974;2022-12-29T00:31:40;0.75;;;0.75;;
57561;SDS011;43397;51.530;5.974;2022-12-29T00:34:42;0.73;;;0.60;;
57561;SDS011;43397;51.530;5.974;2022-12-29T00:37:45;0.43;;;0.43;;
57561;SDS011;43397;51.530;5.974;2022-12-29T00:40:45;0.85;;;0.70;;
57561;SDS011;43397;51.530;5.974;2022-12-29T00:43:58;0.60;;;0.60;;
57561;SDS011;43397;51.530;5.974;2022-12-29T00:46:49;1.17;;;0.93;;
57561;SDS011;43397;51.530;5.974;2022-12-29T00:49:50;1.02;;;1.00;;
57561;SDS011;43397;51.530;5.974;2022-12-29T00:52:52;0.40;;;0.40;;
57561;SDS011;43397;51.530;5.974;2022-12-29T00:55:54;0.30;;;0.30;;
57561;SDS011;43397;51.530;5.974;2022-12-29T00:58:56;0.50;;;0.50;;
57561;SDS011;43397;51.530;5.974;2022-12-29T01:01:56;0.50;;;0.50;;
57561;SDS011;43397;51.530;5.974;2022-12-29T01:04:59;0.30;;;0.30;;
57561;SDS011;43397;51.530;5.974;2022-12-29T01:08:01;0.40;;;0.40;;
57561;SDS011;43397;51.530;5.974;2022-12-29T01:11:03;0.30;;;0.30;;
57561;SDS011;43397;51.530;5.974;2022-12-29T01:14:04;0.40;;;0.40;;
57561;SDS011;43397;51.530;5.974;2022-12-29T01:17:06;3.92;;;1.73;;
57561;SDS011;43397;51.530;5.974;2022-12-29T01:20:09;3.25;;;1.45;;
57561;SDS011;43397;51.530;5.974;2022-12-29T01:23:10;4.43;;;2.00;;
57561;SDS011;43397;51.530;5.974;2022-12-29T01:26:12;3.10;;;1.75;;
57561;SDS011;43397;51.530;5.974;2022-12-29T01:29:13;3.90;;;2.03;;
57561;SDS011;43397;51.530;5.974;2022-12-29T01:32:15;3.75;;;1.95;;
57561;SDS011;43397;51.530;5.974;2022-12-29T01:35:17;2.42;;;1.20;;
57561;SDS011;43397;51.530;5.974;2022-12-29T01:38:19;5.05;;;1.80;;
57561;SDS011;43397;51.530;5.974;2022-12-29T01:41:20;3.22;;;1.50;;
57561;SDS011;43397;51.530;5.974;2022-12-29T01:47:26;3.88;;;1.15;;
57561;SDS011;43397;51.530;5.974;2022-12-29T01:50:26;2.33;;;1.20;;
57561;SDS011;43397;51.530;5.974;2022-12-29T01:53:27;3.53;;;1.35;;
57561;SDS011;43397;51.530;5.974;2022-12-29T01:56:29;2.58;;;1.20;;
57561;SDS011;43397;51.530;5.974;2022-12-29T01:59:31;3.63;;;1.50;;
57561;SDS011;43397;51.530;5.974;2022-12-29T02:02:33;2.90;;;1.25;;
57561;SDS011;43397;51.530;5.974;2022-12-29T02:05:36;3.05;;;1.55;;
57561;SDS011;43397;51.530;5.974;2022-12-29T02:08:36;3.72;;;1.20;;
57561;SDS011;43397;51.530;5.974;2022-12-29T02:11:38;3.03;;;1.40;;
57561;SDS011;43397;51.530;5.974;2022-12-29T02:14:41;4.65;;;1.10;;
57561;SDS011;43397;51.530;5.974;2022-12-29T02:17:44;3.63;;;1.20;;
57561;SDS011;43397;51.530;5.974;2022-12-29T02:20:48;1.70;;;0.95;;
57561;SDS011;43397;51.530;5.974;2022-12-29T02:23:57;2.33;;;1.08;;
57561;SDS011;43397;51.530;5.974;2022-12-29T02:26:51;2.03;;;0.95;;
57561;SDS011;43397;51.530;5.974;2022-12-29T02:32:51;2.13;;;0.90;;
57561;SDS011;43397;51.530;5.974;2022-12-29T02:35:54;3.22;;;1.40;;
57561;SDS011;43397;51.530;5.974;2022-12-29T02:38:55;4.72;;;1.60;;
57561;SDS011;43397;51.530;5.974;2022-12-29T02:41:57;3.67;;;1.40;;
57561;SDS011;43397;51.530;5.974;2022-12-29T02:44:59;2.47;;;1.00;;
57561;SDS011;43397;51.530;5.974;2022-12-29T02:48:00;3.90;;;1.00;;
57561;SDS011;43397;51.530;5.974;2022-12-29T02:51:02;4.00;;;1.35;;
57561;SDS011;43397;51.530;5.974;2022-12-29T02:54:18;4.15;;;1.27;;
57561;SDS011;43397;51.530;5.974;2022-12-29T02:57:07;3.55;;;1.65;;
57561;SDS011;43397;51.530;5.974;2022-12-29T03:00:07;3.38;;;1.35;;
57561;SDS011;43397;51.530;5.974;2022-12-29T03:03:11;2.72;;;1.30;;
57561;SDS011;43397;51.530;5.974;2022-12-29T03:06:14;2.30;;;1.30;;
57561;SDS011;43397;51.530;5.974;2022-12-29T03:09:13;2.80;;;1.15;;
57561;SDS011;43397;51.530;5.974;2022-12-29T03:12:14;4.15;;;1.52;;
57561;SDS011;43397;51.530;5.974;2022-12-29T03:15:15;4.70;;;1.35;;
57561;SDS011;43397;51.530;5.974;2022-12-29T03:21:19;6.13;;;1.60;;
57561;SDS011;43397;51.530;5.974;2022-12-29T03:24:20;3.80;;;1.20;;
57561;SDS011;43397;51.530;5.974;2022-12-29T03:27:22;3.45;;;1.23;;
57561;SDS011;43397;51.530;5.974;2022-12-29T03:30:23;1.27;;;0.88;;
57561;SDS011;43397;51.530;5.974;2022-12-29T03:33:25;6.10;;;1.40;;
57561;SDS011;43397;51.530;5.974;2022-12-29T03:36:30;1.30;;;0.93;;
57561;SDS011;43397;51.530;5.974;2022-12-29T03:39:28;2.08;;;1.00;;
57561;SDS011;43397;51.530;5.974;2022-12-29T03:42:31;2.65;;;1.20;;
57561;SDS011;43397;51.530;5.974;2022-12-29T03:45:32;2.88;;;0.88;;
57561;SDS011;43397;51.530;5.974;2022-12-29T03:48:34;3.63;;;0.90;;
57561;SDS011;43397;51.530;5.974;2022-12-29T03:51:35;6.40;;;1.00;;
57561;SDS011;43397;51.530;5.974;2022-12-29T03:54:38;2.50;;;0.80;;
57561;SDS011;43397;51.530;5.974;2022-12-29T03:57:39;1.20;;;0.65;;
57561;SDS011;43397;51.530;5.974;2022-12-29T04:00:41;1.92;;;0.82;;
57561;SDS011;43397;51.530;5.974;2022-12-29T04:03:43;1.63;;;0.93;;
57561;SDS011;43397;51.530;5.974;2022-12-29T04:06:44;3.28;;;1.00;;
57561;SDS011;43397;51.530;5.974;2022-12-29T04:09:46;1.83;;;0.60;;
57561;SDS011;43397;51.530;5.974;2022-12-29T04:12:48;2.03;;;0.70;;
57561;SDS011;43397;51.530;5.974;2022-12-29T04:15:49;1.30;;;0.80;;
57561;SDS011;43397;51.530;5.974;2022-12-29T04:18:51;1.70;;;0.70;;
57561;SDS011;43397;51.530;5.974;2022-12-29T04:21:53;1.23;;;0.70;;
57561;SDS011;43397;51.530;5.974;2022-12-29T04:24:55;2.08;;;0.70;;
57561;SDS011;43397;51.530;5.974;2022-12-29T04:27:57;1.85;;;0.73;;
57561;SDS011;43397;51.530;5.974;2022-12-29T04:30:59;3.05;;;1.08;;
57561;SDS011;43397;51.530;5.974;2022-12-29T04:34:00;2.42;;;0.70;;
57561;SDS011;43397;51.530;5.974;2022-12-29T04:37:02;2.15;;;0.70;;
57561;SDS011;43397;51.530;5.974;2022-12-29T04:40:04;0.77;;;0.70;;
57561;SDS011;43397;51.530;5.974;2022-12-29T04:43:05;1.67;;;0.77;;
57561;SDS011;43397;51.530;5.974;2022-12-29T04:46:07;3.65;;;1.00;;
57561;SDS011;43397;51.530;5.974;2022-12-29T04:49:09;4.38;;;1.00;;
57561;SDS011;43397;51.530;5.974;2022-12-29T04:52:10;2.90;;;1.13;;
57561;SDS011;43397;51.530;5.974;2022-12-29T04:55:18;2.67;;;1.02;;
57561;SDS011;43397;51.530;5.974;2022-12-29T05:01:16;4.78;;;1.17;;
57561;SDS011;43397;51.530;5.974;2022-12-29T05:04:18;3.25;;;1.20;;
57561;SDS011;43397;51.530;5.974;2022-12-29T05:07:20;8.32;;;2.00;;
57561;SDS011;43397;51.530;5.974;2022-12-29T05:10:21;3.60;;;1.10;;
57561;SDS011;43397;51.530;5.974;2022-12-29T05:13:24;3.35;;;0.90;;
57561;SDS011;43397;51.530;5.974;2022-12-29T05:16:24;4.18;;;1.15;;
57561;SDS011;43397;51.530;5.974;2022-12-29T05:19:28;3.08;;;0.80;;
57561;SDS011;43397;51.530;5.974;2022-12-29T05:22:27;1.95;;;1.15;;
57561;SDS011;43397;51.530;5.974;2022-12-29T05:25:30;5.07;;;1.20;;
57561;SDS011;43397;51.530;5.974;2022-12-29T05:28:31;3.45;;;0.95;;
57561;SDS011;43397;51.530;5.974;2022-12-29T05:31:34;3.35;;;1.45;;
57561;SDS011;43397;51.530;5.974;2022-12-29T05:34:35;3.28;;;1.20;;
57561;SDS011;43397;51.530;5.974;2022-12-29T05:37:35;2.47;;;1.30;;
57561;SDS011;43397;51.530;5.974;2022-12-29T05:40:37;6.00;;;1.30;;
57561;SDS011;43397;51.530;5.974;2022-12-29T05:43:40;4.05;;;0.95;;
57561;SDS011;43397;51.530;5.974;2022-12-29T05:46:42;4.55;;;1.20;;
57561;SDS011;43397;51.530;5.974;2022-12-29T05:49:44;2.20;;;0.93;;
57561;SDS011;43397;51.530;5.974;2022-12-29T05:52:45;3.08;;;1.13;;
57561;SDS011;43397;51.530;5.974;2022-12-29T05:55:47;6.15;;;1.27;;
57561;SDS011;43397;51.530;5.974;2022-12-29T05:58:49;3.50;;;1.20;;
57561;SDS011;43397;51.530;5.974;2022-12-29T06:01:51;6.72;;;1.73;;
57561;SDS011;43397;51.530;5.974;2022-12-29T06:04:52;5.40;;;1.40;;
57561;SDS011;43397;51.530;5.974;2022-12-29T06:07:54;5.22;;;1.20;;
57561;SDS011;43397;51.530;5.974;2022-12-29T06:10:56;5.63;;;1.50;;
57561;SDS011;43397;51.530;5.974;2022-12-29T06:13:58;4.00;;;1.42;;
57561;SDS011;43397;51.530;5.974;2022-12-29T06:16:59;3.55;;;1.65;;
57561;SDS011;43397;51.530;5.974;2022-12-29T06:20:00;4.28;;;1.83;;
57561;SDS011;43397;51.530;5.974;2022-12-29T06:23:03;3.10;;;1.38;;
57561;SDS011;43397;51.530;5.974;2022-12-29T06:26:05;4.60;;;1.30;;
57561;SDS011;43397;51.530;5.974;2022-12-29T06:29:07;3.88;;;1.30;;
57561;SDS011;43397;51.530;5.974;2022-12-29T06:32:09;5.78;;;1.40;;
57561;SDS011;43397;51.530;5.974;2022-12-29T06:35:10;4.00;;;1.33;;
57561;SDS011;43397;51.530;5.974;2022-12-29T06:38:12;7.05;;;1.23;;
57561;SDS011;43397;51.530;5.974;2022-12-29T06:41:13;5.43;;;1.00;;
57561;SDS011;43397;51.530;5.974;2022-12-29T06:44:15;5.38;;;1.20;;
57561;SDS011;43397;51.530;5.974;2022-12-29T06:47:17;4.65;;;1.23;;
57561;SDS011;43397;51.530;5.974;2022-12-29T06:50:19;2.47;;;0.90;;
57561;SDS011;43397;51.530;5.974;2022-12-29T06:53:20;4.63;;;1.27;;
57561;SDS011;43397;51.530;5.974;2022-12-29T06:56:22;3.97;;;0.90;;
57561;SDS011;43397;51.530;5.974;2022-12-29T06:59:24;5.93;;;1.90;;
57561;SDS011;43397;51.530;5.974;2022-12-29T07:02:26;8.00;;;1.50;;
57561;SDS011;43397;51.530;5.974;2022-12-29T07:05:27;4.25;;;1.10;;
57561;SDS011;43397;51.530;5.974;2022-12-29T07:08:29;4.82;;;1.10;;
57561;SDS011;43397;51.530;5.974;2022-12-29T07:11:31;3.38;;;1.08;;
57561;SDS011;43397;51.530;5.974;2022-12-29T07:14:37;5.30;;;1.10;;
57561;SDS011;43397;51.530;5.974;2022-12-29T07:17:34;6.93;;;1.50;;
57561;SDS011;43397;51.530;5.974;2022-12-29T07:20:35;4.60;;;1.27;;
57561;SDS011;43397;51.530;5.974;2022-12-29T07:23:38;8.40;;;1.55;;
57561;SDS011;43397;51.530;5.974;2022-12-29T07:29:41;4.43;;;1.05;;
57561;SDS011;43397;51.530;5.974;2022-12-29T07:32:43;8.13;;;1.80;;
57561;SDS011;43397;51.530;5.974;2022-12-29T07:35:45;4.30;;;1.02;;
57561;SDS011;43397;51.530;5.974;2022-12-29T07:38:47;3.80;;;0.85;;
57561;SDS011;43397;51.530;5.974;2022-12-29T07:41:48;4.40;;;1.23;;
57561;SDS011;43397;51.530;5.974;2022-12-29T07:44:50;4.13;;;1.17;;
57561;SDS011;43397;51.530;5.974;2022-12-29T07:47:52;4.40;;;1.30;;
57561;SDS011;43397;51.530;5.974;2022-12-29T07:50:54;5.55;;;1.15;;
57561;SDS011;43397;51.530;5.974;2022-12-29T07:53:55;5.57;;;2.03;;
57561;SDS011;43397;51.530;5.974;2022-12-29T07:56:57;7.53;;;1.30;;
57561;SDS011;43397;51.530;5.974;2022-12-29T07:59:58;5.90;;;2.28;;
57561;SDS011;43397;51.530;5.974;2022-12-29T08:03:01;3.03;;;0.98;;
57561;SDS011;43397;51.530;5.974;2022-12-29T08:06:01;6.40;;;1.33;;
57561;SDS011;43397;51.530;5.974;2022-12-29T08:09:04;5.78;;;1.40;;
57561;SDS011;43397;51.530;5.974;2022-12-29T08:12:07;7.50;;;1.35;;
57561;SDS011;43397;51.530;5.974;2022-12-29T08:15:09;4.47;;;1.23;;
57561;SDS011;43397;51.530;5.974;2022-12-29T08:18:09;6.80;;;1.30;;
57561;SDS011;43397;51.530;5.974;2022-12-29T08:21:11;6.25;;;1.40;;
57561;SDS011;43397;51.530;5.974;2022-12-29T08:24:13;6.15;;;1.10;;
57561;SDS011;43397;51.530;5.974;2022-12-29T08:27:15;7.35;;;1.35;;
57561;SDS011;43397;51.530;5.974;2022-12-29T08:30:17;3.85;;;1.27;;
57561;SDS011;43397;51.530;5.974;2022-12-29T08:33:18;5.03;;;1.05;;
57561;SDS011;43397;51.530;5.974;2022-12-29T08:36:19;4.32;;;1.08;;
57561;SDS011;43397;51.530;5.974;2022-12-29T08:39:22;7.03;;;1.30;;
57561;SDS011;43397;51.530;5.974;2022-12-29T08:42:24;7.90;;;1.35;;
57561;SDS011;43397;51.530;5.974;2022-12-29T08:45:25;4.80;;;1.48;;
57561;SDS011;43397;51.530;5.974;2022-12-29T08:48:27;8.05;;;1.83;;
57561;SDS011;43397;51.530;5.974;2022-12-29T08:51:29;3.85;;;1.50;;
57561;SDS011;43397;51.530;5.974;2022-12-29T08:54:30;5.82;;;1.48;;
57561;SDS011;43397;51.530;5.974;2022-12-29T08:57:32;4.32;;;1.35;;
57561;SDS011;43397;51.530;5.974;2022-12-29T09:00:34;5.32;;;1.25;;
57561;SDS011;43397;51.530;5.974;2022-12-29T09:03:36;8.20;;;1.45;;
57561;SDS011;43397;51.530;5.974;2022-12-29T09:06:37;5.93;;;1.20;;
57561;SDS011;43397;51.530;5.974;2022-12-29T09:09:39;8.10;;;1.48;;
57561;SDS011;43397;51.530;5.974;2022-12-29T09:12:41;7.35;;;1.90;;
57561;SDS011;43397;51.530;5.974;2022-12-29T09:15:43;6.90;;;2.15;;
57561;SDS011;43397;51.530;5.974;2022-12-29T09:18:44;8.07;;;1.48;;
57561;SDS011;43397;51.530;5.974;2022-12-29T09:21:45;7.15;;;1.55;;
57561;SDS011;43397;51.530;5.974;2022-12-29T09:24:48;7.28;;;1.20;;
57561;SDS011;43397;51.530;5.974;2022-12-29T09:27:50;5.35;;;1.92;;
57561;SDS011;43397;51.530;5.974;2022-12-29T09:30:51;7.03;;;1.33;;
57561;SDS011;43397;51.530;5.974;2022-12-29T09:33:53;4.95;;;1.60;;
57561;SDS011;43397;51.530;5.974;2022-12-29T09:36:55;7.45;;;1.58;;
57561;SDS011;43397;51.530;5.974;2022-12-29T09:39:57;5.28;;;1.83;;
57561;SDS011;43397;51.530;5.974;2022-12-29T09:46:02;7.65;;;1.30;;
57561;SDS011;43397;51.530;5.974;2022-12-29T09:49:06;7.07;;;1.10;;
57561;SDS011;43397;51.530;5.974;2022-12-29T09:52:05;4.30;;;1.10;;
57561;SDS011;43397;51.530;5.974;2022-12-29T09:55:08;4.03;;;1.27;;
57561;SDS011;43397;51.530;5.974;2022-12-29T09:58:10;5.53;;;1.67;;
57561;SDS011;43397;51.530;5.974;2022-12-29T10:01:12;9.82;;;1.52;;
57561;SDS011;43397;51.530;5.974;2022-12-29T10:04:11;5.53;;;1.50;;
57561;SDS011;43397;51.530;5.974;2022-12-29T10:07:14;5.60;;;1.60;;
57561;SDS011;43397;51.530;5.974;2022-12-29T10:10:19;6.22;;;1.38;;
57561;SDS011;43397;51.530;5.974;2022-12-29T10:13:19;6.07;;;1.10;;
57561;SDS011;43397;51.530;5.974;2022-12-29T10:16:20;4.38;;;1.13;;
57561;SDS011;43397;51.530;5.974;2022-12-29T10:22:24;6.30;;;1.15;;
57561;SDS011;43397;51.530;5.974;2022-12-29T10:25:24;6.10;;;1.67;;
57561;SDS011;43397;51.530;5.974;2022-12-29T10:28:29;5.35;;;1.33;;
57561;SDS011;43397;51.530;5.974;2022-12-29T10:31:29;6.25;;;1.50;;
57561;SDS011;43397;51.530;5.974;2022-12-29T10:34:29;6.38;;;1.40;;
57561;SDS011;43397;51.530;5.974;2022-12-29T10:37:31;8.50;;;1.83;;
57561;SDS011;43397;51.530;5.974;2022-12-29T10:40:33;5.57;;;1.50;;
57561;SDS011;43397;51.530;5.974;2022-12-29T10:43:34;5.35;;;1.30;;
57561;SDS011;43397;51.530;5.974;2022-12-29T10:46:35;5.68;;;1.10;;
57561;SDS011;43397;51.530;5.974;2022-12-29T10:49:38;4.05;;;1.77;;
57561;SDS011;43397;51.530;5.974;2022-12-29T10:52:39;10.43;;;1.80;;
57561;SDS011;43397;51.530;5.974;2022-12-29T10:55:40;6.80;;;1.20;;
57561;SDS011;43397;51.530;5.974;2022-12-29T10:58:42;6.05;;;1.42;;
57561;SDS011;43397;51.530;5.974;2022-12-29T11:01:47;5.90;;;1.83;;
57561;SDS011;43397;51.530;5.974;2022-12-29T11:04:48;5.97;;;1.90;;
57561;SDS011;43397;51.530;5.974;2022-12-29T11:07:48;6.43;;;2.65;;
57561;SDS011;43397;51.530;5.974;2022-12-29T11:10:56;9.20;;;2.45;;
57561;SDS011;43397;51.530;5.974;2022-12-29T11:13:55;8.15;;;1.77;;
57561;SDS011;43397;51.530;5.974;2022-12-29T11:16:57;10.48;;;1.73;;
57561;SDS011;43397;51.530;5.974;2022-12-29T11:19:55;6.10;;;1.63;;
57561;SDS011;43397;51.530;5.974;2022-12-29T11:22:56;7.75;;;1.40;;
57561;SDS011;43397;51.530;5.974;2022-12-29T11:26:14;7.25;;;1.58;;
57561;SDS011;43397;51.530;5.974;2022-12-29T11:29:17;8.05;;;2.13;;
57561;SDS011;43397;51.530;5.974;2022-12-29T11:32:09;4.57;;;1.42;;
57561;SDS011;43397;51.530;5.974;2022-12-29T11:35:13;10.05;;;2.00;;
57561;SDS011;43397;51.530;5.974;2022-12-29T11:38:05;10.07;;;1.30;;
57561;SDS011;43397;51.530;5.974;2022-12-29T11:41:10;7.70;;;1.63;;
57561;SDS011;43397;51.530;5.974;2022-12-29T11:44:10;6.63;;;1.42;;
57561;SDS011;43397;51.530;5.974;2022-12-29T11:47:12;7.85;;;1.40;;
57561;SDS011;43397;51.530;5.974;2022-12-29T11:50:17;8.80;;;1.30;;
57561;SDS011;43397;51.530;5.974;2022-12-29T11:53:15;6.38;;;1.60;;
57561;SDS011;43397;51.530;5.974;2022-12-29T11:56:17;8.30;;;1.60;;
57561;SDS011;43397;51.530;5.974;2022-12-29T12:02:24;5.35;;;1.52;;
57561;SDS011;43397;51.530;5.974;2022-12-29T12:05:25;7.15;;;1.85;;
57561;SDS011;43397;51.530;5.974;2022-12-29T12:08:28;4.88;;;1.20;;
57561;SDS011;43397;51.530;5.974;2022-12-29T12:11:25;8.05;;;1.65;;
57561;SDS011;43397;51.530;5.974;2022-12-29T12:14:27;7.55;;;1.40;;
57561;SDS011;43397;51.530;5.974;2022-12-29T12:17:29;9.00;;;1.83;;
57561;SDS011;43397;51.530;5.974;2022-12-29T12:20:34;8.35;;;1.88;;
57561;SDS011;43397;51.530;5.974;2022-12-29T12:23:35;7.90;;;1.80;;
57561;SDS011;43397;51.530;5.974;2022-12-29T12:26:34;6.32;;;2.10;;
57561;SDS011;43397;51.530;5.974;2022-12-29T12:29:36;9.40;;;1.80;;
57561;SDS011;43397;51.530;5.974;2022-12-29T12:32:39;7.95;;;1.60;;
57561;SDS011;43397;51.530;5.974;2022-12-29T12:36:03;8.45;;;1.98;;
57561;SDS011;43397;51.530;5.974;2022-12-29T12:38:40;8.57;;;2.00;;
57561;SDS011;43397;51.530;5.974;2022-12-29T12:41:44;5.75;;;1.45;;
57561;SDS011;43397;51.530;5.974;2022-12-29T12:44:47;11.57;;;1.90;;
57561;SDS011;43397;51.530;5.974;2022-12-29T12:47:51;6.78;;;1.60;;
57561;SDS011;43397;51.530;5.974;2022-12-29T12:50:49;8.38;;;1.90;;
57561;SDS011;43397;51.530;5.974;2022-12-29T12:53:52;6.05;;;1.42;;
57561;SDS011;43397;51.530;5.974;2022-12-29T12:56:54;5.72;;;1.70;;
57561;SDS011;43397;51.530;5.974;2022-12-29T12:59:56;7.40;;;1.70;;
57561;SDS011;43397;51.530;5.974;2022-12-29T13:02:59;10.48;;;3.08;;
57561;SDS011;43397;51.530;5.974;2022-12-29T13:06:09;9.02;;;1.77;;
57561;SDS011;43397;51.530;5.974;2022-12-29T13:09:08;11.65;;;2.70;;
57561;SDS011;43397;51.530;5.974;2022-12-29T13:12:06;4.43;;;1.73;;
57561;SDS011;43397;51.530;5.974;2022-12-29T13:15:04;11.20;;;1.73;;
57561;SDS011;43397;51.530;5.974;2022-12-29T13:18:04;5.85;;;1.48;;
57561;SDS011;43397;51.530;5.974;2022-12-29T13:21:05;5.28;;;1.15;;
57561;SDS011;43397;51.530;5.974;2022-12-29T13:24:11;8.63;;;1.98;;
57561;SDS011;43397;51.530;5.974;2022-12-29T13:27:11;8.85;;;1.67;;
57561;SDS011;43397;51.530;5.974;2022-12-29T13:30:12;8.75;;;1.85;;
57561;SDS011;43397;51.530;5.974;2022-12-29T13:33:13;6.45;;;2.00;;
57561;SDS011;43397;51.530;5.974;2022-12-29T13:36:16;4.57;;;1.23;;
57561;SDS011;43397;51.530;5.974;2022-12-29T13:39:16;5.72;;;1.70;;
57561;SDS011;43397;51.530;5.974;2022-12-29T13:42:18;3.30;;;1.45;;
57561;SDS011;43397;51.530;5.974;2022-12-29T13:45:20;7.75;;;1.77;;
57561;SDS011;43397;51.530;5.974;2022-12-29T13:48:21;6.53;;;1.50;;
57561;SDS011;43397;51.530;5.974;2022-12-29T13:51:22;6.90;;;1.48;;
57561;SDS011;43397;51.530;5.974;2022-12-29T13:54:27;10.48;;;2.65;;
57561;SDS011;43397;51.530;5.974;2022-12-29T13:57:29;7.97;;;2.25;;
57561;SDS011;43397;51.530;5.974;2022-12-29T14:00:28;8.45;;;2.30;;
57561;SDS011;43397;51.530;5.974;2022-12-29T14:03:38;8.43;;;2.88;;
57561;SDS011;43397;51.530;5.974;2022-12-29T14:06:31;8.85;;;2.05;;
57561;SDS011;43397;51.530;5.974;2022-12-29T14:09:42;5.15;;;1.92;;
57561;SDS011;43397;51.530;5.974;2022-12-29T14:12:37;10.73;;;2.45;;
57561;SDS011;43397;51.530;5.974;2022-12-29T14:15:38;9.13;;;2.17;;
57561;SDS011;43397;51.530;5.974;2022-12-29T14:18:43;8.80;;;2.63;;
57561;SDS011;43397;51.530;5.974;2022-12-29T14:21:40;9.80;;;2.65;;
57561;SDS011;43397;51.530;5.974;2022-12-29T14:24:43;10.57;;;3.03;;
57561;SDS011;43397;51.530;5.974;2022-12-29T14:27:53;7.45;;;1.98;;
57561;SDS011;43397;51.530;5.974;2022-12-29T14:30:52;12.90;;;2.30;;
57561;SDS011;43397;51.530;5.974;2022-12-29T14:36:53;10.32;;;2.88;;
57561;SDS011;43397;51.530;5.974;2022-12-29T14:39:49;9.60;;;2.78;;
57561;SDS011;43397;51.530;5.974;2022-12-29T14:42:53;10.45;;;2.95;;
57561;SDS011;43397;51.530;5.974;2022-12-29T14:45:59;12.35;;;2.30;;
57561;SDS011;43397;51.530;5.974;2022-12-29T14:48:56;10.80;;;2.30;;
57561;SDS011;43397;51.530;5.974;2022-12-29T14:52:05;7.07;;;2.38;;
57561;SDS011;43397;51.530;5.974;2022-12-29T14:54:59;7.65;;;2.03;;
57561;SDS011;43397;51.530;5.974;2022-12-29T14:58:01;5.43;;;1.65;;
57561;SDS011;43397;51.530;5.974;2022-12-29T15:01:03;8.75;;;2.05;;
57561;SDS011;43397;51.530;5.974;2022-12-29T15:04:06;7.63;;;1.65;;
57561;SDS011;43397;51.530;5.974;2022-12-29T15:07:07;11.80;;;2.30;;
57561;SDS011;43397;51.530;5.974;2022-12-29T15:10:11;6.93;;;2.33;;
57561;SDS011;43397;51.530;5.974;2022-12-29T15:13:15;6.97;;;1.75;;
57561;SDS011;43397;51.530;5.974;2022-12-29T15:16:21;7.57;;;1.50;;
57561;SDS011;43397;51.530;5.974;2022-12-29T15:19:21;7.45;;;1.73;;
57561;SDS011;43397;51.530;5.974;2022-12-29T15:22:15;7.88;;;2.00;;
57561;SDS011;43397;51.530;5.974;2022-12-29T15:25:17;4.50;;;1.40;;
57561;SDS011;43397;51.530;5.974;2022-12-29T15:28:19;6.85;;;1.75;;
57561;SDS011;43397;51.530;5.974;2022-12-29T15:31:21;6.25;;;1.50;;
57561;SDS011;43397;51.530;5.974;2022-12-29T15:34:22;4.25;;;1.65;;
57561;SDS011;43397;51.530;5.974;2022-12-29T15:37:28;5.47;;;2.00;;
57561;SDS011;43397;51.530;5.974;2022-12-29T15:40:27;12.20;;;1.90;;
57561;SDS011;43397;51.530;5.974;2022-12-29T15:43:34;6.00;;;1.30;;
57561;SDS011;43397;51.530;5.974;2022-12-29T15:46:30;10.30;;;2.58;;
57561;SDS011;43397;51.530;5.974;2022-12-29T15:49:32;7.05;;;1.73;;
57561;SDS011;43397;51.530;5.974;2022-12-29T15:52:33;10.77;;;2.22;;
57561;SDS011;43397;51.530;5.974;2022-12-29T15:55:35;8.15;;;1.88;;
57561;SDS011;43397;51.530;5.974;2022-12-29T15:58:40;5.68;;;1.67;;
57561;SDS011;43397;51.530;5.974;2022-12-29T16:01:38;4.80;;;1.42;;
57561;SDS011;43397;51.530;5.974;2022-12-29T16:04:40;3.92;;;1.40;;
57561;SDS011;43397;51.530;5.974;2022-12-29T16:07:41;6.15;;;1.95;;
57561;SDS011;43397;51.530;5.974;2022-12-29T16:10:42;3.85;;;2.03;;
57561;SDS011;43397;51.530;5.974;2022-12-29T16:13:45;9.48;;;2.47;;
57561;SDS011;43397;51.530;5.974;2022-12-29T16:16:47;5.13;;;2.30;;
57561;SDS011;43397;51.530;5.974;2022-12-29T16:19:49;7.38;;;1.98;;
57561;SDS011;43397;51.530;5.974;2022-12-29T16:22:51;4.75;;;1.80;;
57561;SDS011;43397;51.530;5.974;2022-12-29T16:25:52;4.90;;;1.55;;
57561;SDS011;43397;51.530;5.974;2022-12-29T16:28:55;7.40;;;1.48;;
57561;SDS011;43397;51.530;5.974;2022-12-29T16:31:56;7.40;;;3.10;;
57561;SDS011;43397;51.530;5.974;2022-12-29T16:35:08;4.00;;;1.25;;
57561;SDS011;43397;51.530;5.974;2022-12-29T16:38:12;2.00;;;1.30;;
57561;SDS011;43397;51.530;5.974;2022-12-29T16:41:02;7.57;;;1.80;;
57561;SDS011;43397;51.530;5.974;2022-12-29T16:44:12;7.68;;;1.70;;
57561;SDS011;43397;51.530;5.974;2022-12-29T16:47:16;5.18;;;1.58;;
57561;SDS011;43397;51.530;5.974;2022-12-29T16:50:11;9.20;;;1.90;;
57561;SDS011;43397;51.530;5.974;2022-12-29T16:53:15;3.65;;;1.60;;
57561;SDS011;43397;51.530;5.974;2022-12-29T16:56:16;5.82;;;1.48;;
57561;SDS011;43397;51.530;5.974;2022-12-29T16:59:16;7.32;;;1.70;;
57561;SDS011;43397;51.530;5.974;2022-12-29T17:02:14;5.95;;;1.40;;
57561;SDS011;43397;51.530;5.974;2022-12-29T17:05:15;4.50;;;1.40;;
57561;SDS011;43397;51.530;5.974;2022-12-29T17:08:18;5.63;;;1.60;;
57561;SDS011;43397;51.530;5.974;2022-12-29T17:11:22;4.53;;;1.45;;
57561;SDS011;43397;51.530;5.974;2022-12-29T17:14:21;6.47;;;1.40;;
57561;SDS011;43397;51.530;5.974;2022-12-29T17:17:24;5.38;;;1.30;;
57561;SDS011;43397;51.530;5.974;2022-12-29T17:20:24;6.97;;;1.70;;
57561;SDS011;43397;51.530;5.974;2022-12-29T17:23:25;8.38;;;2.05;;
57561;SDS011;43397;51.530;5.974;2022-12-29T17:26:27;11.32;;;2.63;;
57561;SDS011;43397;51.530;5.974;2022-12-29T17:29:31;5.25;;;1.33;;
57561;SDS011;43397;51.530;5.974;2022-12-29T17:32:30;7.70;;;1.63;;
57561;SDS011;43397;51.530;5.974;2022-12-29T17:35:32;5.70;;;1.40;;
57561;SDS011;43397;51.530;5.974;2022-12-29T17:38:34;7.43;;;1.63;;
57561;SDS011;43397;51.530;5.974;2022-12-29T17:41:36;12.60;;;2.97;;
57561;SDS011;43397;51.530;5.974;2022-12-29T17:44:37;6.45;;;1.88;;
57561;SDS011;43397;51.530;5.974;2022-12-29T17:47:39;7.22;;;1.73;;
57561;SDS011;43397;51.530;5.974;2022-12-29T17:50:41;9.43;;;3.13;;
57561;SDS011;43397;51.530;5.974;2022-12-29T17:53:42;9.60;;;1.70;;
57561;SDS011;43397;51.530;5.974;2022-12-29T17:56:44;7.22;;;1.92;;
57561;SDS011;43397;51.530;5.974;2022-12-29T17:59:46;11.43;;;1.92;;
57561;SDS011;43397;51.530;5.974;2022-12-29T18:02:48;5.78;;;1.80;;
57561;SDS011;43397;51.530;5.974;2022-12-29T18:05:49;8.95;;;2.25;;
57561;SDS011;43397;51.530;5.974;2022-12-29T18:08:50;10.50;;;2.28;;
57561;SDS011;43397;51.530;5.974;2022-12-29T18:11:53;11.43;;;2.80;;
57561;SDS011;43397;51.530;5.974;2022-12-29T18:14:55;11.93;;;2.38;;
57561;SDS011;43397;51.530;5.974;2022-12-29T18:17:57;8.15;;;2.20;;
57561;SDS011;43397;51.530;5.974;2022-12-29T18:20:59;9.38;;;2.92;;
57561;SDS011;43397;51.530;5.974;2022-12-29T18:24:00;8.80;;;2.67;;
57561;SDS011;43397;51.530;5.974;2022-12-29T18:27:04;9.43;;;2.72;;
57561;SDS011;43397;51.530;5.974;2022-12-29T18:30:04;9.88;;;2.75;;
57561;SDS011;43397;51.530;5.974;2022-12-29T18:33:05;16.40;;;3.47;;
57561;SDS011;43397;51.530;5.974;2022-12-29T18:36:09;11.65;;;2.80;;
57561;SDS011;43397;51.530;5.974;2022-12-29T18:39:09;8.50;;;3.67;;